sensor_id;sensor_type;location;lat;lon;timestamp;pressure;altitude;pressure_sealevel;temperature;humidity
10079;BME280;5078;42.544;22.966;2023-09-08T00:01:59;94333.53;;;20.77;72.17
10079;BME280;5078;42.544;22.966;2023-09-08T00:04:26;94331.66;;;20.78;72.79
10079;BME280;5078;42.544;22.966;2023-09-08T00:06:52;94335.41;;;20.77;72.67
10079;BME280;5078;42.544;22.966;2023-09-08T00:09:19;94339.59;;;20.73;71.90
10079;BME280;5078;42.544;22.966;2023-09-08T00:11:47;94344.94;;;20.61;71.58
10079;BME280;5078;42.544;22.966;2023-09-08T00:14:14;94338.94;;;20.59;71.63
10079;BME280;5078;42.544;22.966;2023-09-08T00:16:41;94325.03;;;20.62;71.28
10079;BME280;5078;42.544;22.966;2023-09-08T00:19:09;94332.50;;;20.60;71.27
10079;BME280;5078;42.544;22.966;2023-09-08T00:21:36;94342.22;;;20.61;70.86
10079;BME280;5078;42.544;22.966;2023-09-08T00:24:04;94332.38;;;20.55;71.44
10079;BME280;5078;42.544;22.966;2023-09-08T00:26:30;94335.88;;;20.37;71.94
10079;BME280;5078;42.544;22.966;2023-09-08T00:28:58;94350.28;;;20.42;71.89
10079;BME280;5078;42.544;22.966;2023-09-08T00:31:25;94347.81;;;20.41;70.97
10079;BME280;5078;42.544;22.966;2023-09-08T00:33:52;94347.00;;;20.40;70.51
10079;BME280;5078;42.544;22.966;2023-09-08T00:36:18;94356.06;;;20.28;66.99
10079;BME280;5078;42.544;22.966;2023-09-08T00:38:45;94341.69;;;20.34;65.72
10079;BME280;5078;42.544;22.966;2023-09-08T00:41:12;94349.59;;;20.29;63.71
10079;BME280;5078;42.544;22.966;2023-09-08T00:43:38;94338.78;;;20.35;62.94
10079;BME280;5078;42.544;22.966;2023-09-08T00:46:07;94343.03;;;20.24;62.27
10079;BME280;5078;42.544;22.966;2023-09-08T00:48:34;94333.22;;;20.30;61.12
10079;BME280;5078;42.544;22.966;2023-09-08T00:51:03;94338.84;;;20.29;60.60
10079;BME280;5078;42.544;22.966;2023-09-08T00:53:31;94344.47;;;20.45;59.73
10079;BME280;5078;42.544;22.966;2023-09-08T00:55:58;94347.28;;;20.51;59.54
10079;BME280;5078;42.544;22.966;2023-09-08T00:58:25;94347.88;;;20.34;64.27
10079;BME280;5078;42.544;22.966;2023-09-08T01:00:52;94341.16;;;19.81;70.30
10079;BME280;5078;42.544;22.966;2023-09-08T01:03:20;94336.94;;;19.92;71.66
10079;BME280;5078;42.544;22.966;2023-09-08T01:05:47;94334.97;;;19.24;78.55
10079;BME280;5078;42.544;22.966;2023-09-08T01:08:15;94333.59;;;19.15;82.53
10079;BME280;5078;42.544;22.966;2023-09-08T01:10:42;94329.72;;;19.36;82.31
10079;BME280;5078;42.544;22.966;2023-09-08T01:13:09;94300.50;;;19.14;83.66
10079;BME280;5078;42.544;22.966;2023-09-08T01:15:35;94338.69;;;19.30;85.21
10079;BME280;5078;42.544;22.966;2023-09-08T01:18:02;94341.75;;;19.33;87.22
10079;BME280;5078;42.544;22.966;2023-09-08T01:20:38;94326.13;;;18.85;92.42
10079;BME280;5078;42.544;22.966;2023-09-08T01:23:18;94326.81;;;18.67;97.07
10079;BME280;5078;42.544;22.966;2023-09-08T01:25:50;94321.78;;;18.84;97.74
10079;BME280;5078;42.544;22.966;2023-09-08T01:28:20;94330.06;;;19.14;95.76
10079;BME280;5078;42.544;22.966;2023-09-08T01:30:47;94328.16;;;19.22;95.39
10079;BME280;5078;42.544;22.966;2023-09-08T01:33:15;94328.56;;;19.25;94.92
10079;BME280;5078;42.544;22.966;2023-09-08T01:35:43;94313.13;;;19.39;94.18
10079;BME280;5078;42.544;22.966;2023-09-08T01:38:09;94322.31;;;19.31;94.86
10079;BME280;5078;42.544;22.966;2023-09-08T01:40:37;94314.03;;;19.33;95.92
10079;BME280;5078;42.544;22.966;2023-09-08T01:43:05;94312.78;;;19.04;98.88
10079;BME280;5078;42.544;22.966;2023-09-08T01:45:32;94298.25;;;18.73;100.00
10079;BME280;5078;42.544;22.966;2023-09-08T01:47:58;94302.06;;;18.52;100.00
10079;BME280;5078;42.544;22.966;2023-09-08T01:50:25;94297.28;;;18.61;100.00
10079;BME280;5078;42.544;22.966;2023-09-08T01:52:52;94296.72;;;18.52;100.00
10079;BME280;5078;42.544;22.966;2023-09-08T01:55:18;94307.06;;;18.42;100.00
10079;BME280;5078;42.544;22.966;2023-09-08T01:57:46;94305.50;;;18.27;100.00
10079;BME280;5078;42.544;22.966;2023-09-08T02:00:15;94302.56;;;18.42;100.00
10079;BME280;5078;42.544;22.966;2023-09-08T02:02:42;94298.03;;;18.29;100.00
10079;BME280;5078;42.544;22.966;2023-09-08T02:05:08;94309.72;;;18.55;100.00
10079;BME280;5078;42.544;22.966;2023-09-08T02:07:35;94299.72;;;18.75;100.00
10079;BME280;5078;42.544;22.966;2023-09-08T02:10:02;94302.03;;;18.65;100.00
10079;BME280;5078;42.544;22.966;2023-09-08T02:12:29;94299.28;;;18.72;100.00
10079;BME280;5078;42.544;22.966;2023-09-08T02:14:55;94296.06;;;18.57;100.00
10079;BME280;5078;42.544;22.966;2023-09-08T02:17:23;94294.03;;;18.52;100.00
10079;BME280;5078;42.544;22.966;2023-09-08T02:19:50;94283.88;;;18.54;100.00
10079;BME280;5078;42.544;22.966;2023-09-08T02:22:17;94293.97;;;18.65;100.00
10079;BME280;5078;42.544;22.966;2023-09-08T02:24:43;94294.69;;;18.47;100.00
10079;BME280;5078;42.544;22.966;2023-09-08T02:27:10;94295.97;;;18.38;100.00
10079;BME280;5078;42.544;22.966;2023-09-08T02:29:36;94291.75;;;18.56;100.00
10079;BME280;5078;42.544;22.966;2023-09-08T02:32:04;94300.06;;;18.47;100.00
10079;BME280;5078;42.544;22.966;2023-09-08T02:34:35;94301.97;;;18.72;100.00
10079;BME280;5078;42.544;22.966;2023-09-08T02:37:04;94298.75;;;18.57;100.00
10079;BME280;5078;42.544;22.966;2023-09-08T02:39:32;94295.34;;;18.36;100.00
10079;BME280;5078;42.544;22.966;2023-09-08T02:41:58;94295.56;;;18.35;100.00
10079;BME280;5078;42.544;22.966;2023-09-08T02:44:25;94291.16;;;18.47;100.00
10079;BME280;5078;42.544;22.966;2023-09-08T02:46:52;94286.63;;;18.47;100.00
10079;BME280;5078;42.544;22.966;2023-09-08T02:49:19;94281.22;;;18.54;100.00
10079;BME280;5078;42.544;22.966;2023-09-08T02:51:47;94284.41;;;18.38;100.00
10079;BME280;5078;42.544;22.966;2023-09-08T02:54:14;94286.28;;;18.30;100.00
10079;BME280;5078;42.544;22.966;2023-09-08T02:56:41;94288.34;;;18.35;100.00
10079;BME280;5078;42.544;22.966;2023-09-08T02:59:07;94289.25;;;18.09;100.00
10079;BME280;5078;42.544;22.966;2023-09-08T03:01:34;94284.63;;;18.29;100.00
10079;BME280;5078;42.544;22.966;2023-09-08T03:04:01;94277.03;;;18.20;100.00
10079;BME280;5078;42.544;22.966;2023-09-08T03:06:27;94266.63;;;18.37;100.00
10079;BME280;5078;42.544;22.966;2023-09-08T03:08:55;94273.22;;;18.41;100.00
10079;BME280;5078;42.544;22.966;2023-09-08T03:11:22;94271.56;;;17.81;100.00
10079;BME280;5078;42.544;22.966;2023-09-08T03:13:49;94269.94;;;17.54;100.00
10079;BME280;5078;42.544;22.966;2023-09-08T03:16:15;94262.94;;;17.53;100.00
10079;BME280;5078;42.544;22.966;2023-09-08T03:18:42;94266.44;;;17.46;100.00
10079;BME280;5078;42.544;22.966;2023-09-08T03:21:09;94266.81;;;17.83;100.00
10079;BME280;5078;42.544;22.966;2023-09-08T03:23:36;94257.34;;;17.67;100.00
10079;BME280;5078;42.544;22.966;2023-09-08T03:26:05;94262.97;;;17.13;100.00
10079;BME280;5078;42.544;22.966;2023-09-08T03:28:32;94256.34;;;17.02;100.00
10079;BME280;5078;42.544;22.966;2023-09-08T03:30:59;94258.84;;;17.10;100.00
10079;BME280;5078;42.544;22.966;2023-09-08T03:33:26;94260.47;;;17.04;100.00
10079;BME280;5078;42.544;22.966;2023-09-08T03:35:53;94262.75;;;16.94;100.00
10079;BME280;5078;42.544;22.966;2023-09-08T03:38:20;94262.78;;;17.08;100.00
10079;BME280;5078;42.544;22.966;2023-09-08T03:40:47;94262.97;;;17.06;100.00
10079;BME280;5078;42.544;22.966;2023-09-08T03:43:15;94258.81;;;16.84;100.00
10079;BME280;5078;42.544;22.966;2023-09-08T03:45:42;94257.59;;;16.86;100.00
10079;BME280;5078;42.544;22.966;2023-09-08T03:48:09;94248.13;;;17.03;100.00
10079;BME280;5078;42.544;22.966;2023-09-08T03:50:36;94256.78;;;17.06;100.00
10079;BME280;5078;42.544;22.966;2023-09-08T03:53:03;94258.84;;;16.90;100.00
10079;BME280;5078;42.544;22.966;2023-09-08T03:55:29;94256.56;;;17.14;100.00
10079;BME280;5078;42.544;22.966;2023-09-08T03:57:56;94255.56;;;17.15;100.00
10079;BME280;5078;42.544;22.966;2023-09-08T04:00:24;94259.88;;;17.22;100.00
10079;BME280;5078;42.544;22.966;2023-09-08T04:02:51;94256.56;;;17.14;100.00
10079;BME280;5078;42.544;22.966;2023-09-08T04:05:18;94255.56;;;17.15;100.00
10079;BME280;5078;42.544;22.966;2023-09-08T04:07:45;94257.00;;;17.11;100.00
10079;BME280;5078;42.544;22.966;2023-09-08T04:10:12;94247.09;;;17.04;100.00
10079;BME280;5078;42.544;22.966;2023-09-08T04:12:39;94264.00;;;16.98;100.00
10079;BME280;5078;42.544;22.966;2023-09-08T04:15:07;94267.31;;;17.20;100.00
10079;BME280;5078;42.544;22.966;2023-09-08T04:17:35;94274.72;;;17.38;100.00
10079;BME280;5078;42.544;22.966;2023-09-08T04:20:03;94279.25;;;17.31;100.00
10079;BME280;5078;42.544;22.966;2023-09-08T04:22:31;94285.22;;;17.07;100.00
10079;BME280;5078;42.544;22.966;2023-09-08T04:24:57;94284.00;;;17.42;100.00
10079;BME280;5078;42.544;22.966;2023-09-08T04:27:24;94289.34;;;17.56;100.00
10079;BME280;5078;42.544;22.966;2023-09-08T04:29:51;94287.91;;;17.60;100.00
10079;BME280;5078;42.544;22.966;2023-09-08T04:32:18;94294.28;;;17.59;100.00
10079;BME280;5078;42.544;22.966;2023-09-08T04:34:46;94284.78;;;17.50;100.00
10079;BME280;5078;42.544;22.966;2023-09-08T04:37:14;94288.28;;;17.57;100.00
10079;BME280;5078;42.544;22.966;2023-09-08T04:39:41;94286.22;;;17.59;100.00
10079;BME280;5078;42.544;22.966;2023-09-08T04:42:07;94298.19;;;17.63;100.00
10079;BME280;5078;42.544;22.966;2023-09-08T04:44:34;94295.94;;;17.80;100.00
10079;BME280;5078;42.544;22.966;2023-09-08T04:47:01;94289.63;;;18.19;100.00
10079;BME280;5078;42.544;22.966;2023-09-08T04:49:27;94286.91;;;18.26;100.00
10079;BME280;5078;42.544;22.966;2023-09-08T04:51:56;94290.59;;;18.38;100.00
10079;BME280;5078;42.544;22.966;2023-09-08T04:54:23;94257.63;;;18.18;100.00
10079;BME280;5078;42.544;22.966;2023-09-08T04:56:52;94297.56;;;18.46;100.00
10079;BME280;5078;42.544;22.966;2023-09-08T04:59:19;94291.69;;;19.07;100.00
10079;BME280;5078;42.544;22.966;2023-09-08T05:01:45;94302.13;;;19.47;100.00
10079;BME280;5078;42.544;22.966;2023-09-08T05:04:12;94266.59;;;19.64;100.00
10079;BME280;5078;42.544;22.966;2023-09-08T05:06:39;94300.88;;;19.25;100.00
10079;BME280;5078;42.544;22.966;2023-09-08T05:09:07;94305.06;;;19.64;100.00
10079;BME280;5078;42.544;22.966;2023-09-08T05:11:34;94290.53;;;19.47;100.00
10079;BME280;5078;42.544;22.966;2023-09-08T05:14:00;94299.53;;;19.84;100.00
10079;BME280;5078;42.544;22.966;2023-09-08T05:16:27;94294.41;;;20.38;100.00
10079;BME280;5078;42.544;22.966;2023-09-08T05:19:05;94291.31;;;20.53;99.30
10079;BME280;5078;42.544;22.966;2023-09-08T05:21:33;94315.16;;;20.86;97.50
10079;BME280;5078;42.544;22.966;2023-09-08T05:24:00;94317.97;;;21.21;92.45
10079;BME280;5078;42.544;22.966;2023-09-08T05:26:28;94311.19;;;21.61;85.92
10079;BME280;5078;42.544;22.966;2023-09-08T05:28:55;94314.94;;;20.87;91.66
10079;BME280;5078;42.544;22.966;2023-09-08T05:31:21;94311.84;;;21.02;92.01
10079;BME280;5078;42.544;22.966;2023-09-08T05:33:48;94311.13;;;21.37;89.41
10079;BME280;5078;42.544;22.966;2023-09-08T05:36:15;94301.78;;;21.40;86.34
10079;BME280;5078;42.544;22.966;2023-09-08T05:38:41;94301.03;;;21.32;88.21
10079;BME280;5078;42.544;22.966;2023-09-08T05:41:08;94321.03;;;21.79;84.24
10079;BME280;5078;42.544;22.966;2023-09-08T05:43:36;94312.84;;;21.85;81.58
10079;BME280;5078;42.544;22.966;2023-09-08T05:46:03;94312.09;;;21.43;83.66
10079;BME280;5078;42.544;22.966;2023-09-08T05:48:30;94318.47;;;21.60;74.04
10079;BME280;5078;42.544;22.966;2023-09-08T05:50:57;94317.28;;;22.03;67.42
10079;BME280;5078;42.544;22.966;2023-09-08T05:53:24;94315.66;;;22.78;65.15
10079;BME280;5078;42.544;22.966;2023-09-08T05:55:50;94325.09;;;23.33;62.86
10079;BME280;5078;42.544;22.966;2023-09-08T05:58:18;94285.69;;;22.79;58.46
10079;BME280;5078;42.544;22.966;2023-09-08T06:00:46;94319.56;;;22.70;57.17
10079;BME280;5078;42.544;22.966;2023-09-08T06:03:13;94311.38;;;22.53;58.80
10079;BME280;5078;42.544;22.966;2023-09-08T06:05:40;94322.25;;;22.82;56.97
10079;BME280;5078;42.544;22.966;2023-09-08T06:08:06;94312.25;;;22.30;58.25
10079;BME280;5078;42.544;22.966;2023-09-08T06:10:33;94318.25;;;22.85;56.84
10079;BME280;5078;42.544;22.966;2023-09-08T06:13:00;94319.06;;;22.45;56.53
10079;BME280;5078;42.544;22.966;2023-09-08T06:15:27;94320.34;;;22.42;58.15
10079;BME280;5078;42.544;22.966;2023-09-08T06:17:55;94320.84;;;22.39;58.03
10079;BME280;5078;42.544;22.966;2023-09-08T06:20:21;94317.50;;;22.49;58.14
10079;BME280;5078;42.544;22.966;2023-09-08T06:22:50;94320.84;;;22.39;57.50
10079;BME280;5078;42.544;22.966;2023-09-08T06:25:16;94328.69;;;22.40;59.57
10079;BME280;5078;42.544;22.966;2023-09-08T06:27:44;94331.47;;;22.57;59.23
10079;BME280;5078;42.544;22.966;2023-09-08T06:30:12;94331.25;;;22.47;60.04
10079;BME280;5078;42.544;22.966;2023-09-08T06:32:41;94337.38;;;22.54;57.62
10079;BME280;5078;42.544;22.966;2023-09-08T06:35:10;94339.84;;;22.44;58.86
10079;BME280;5078;42.544;22.966;2023-09-08T06:37:37;94334.63;;;22.66;58.20
10079;BME280;5078;42.544;22.966;2023-09-08T06:40:05;94347.53;;;22.76;56.16
10079;BME280;5078;42.544;22.966;2023-09-08T06:42:32;94347.19;;;22.72;57.21
10079;BME280;5078;42.544;22.966;2023-09-08T06:44:59;94347.69;;;23.10;54.89
10079;BME280;5078;42.544;22.966;2023-09-08T06:47:26;94345.44;;;23.35;53.94
10079;BME280;5078;42.544;22.966;2023-09-08T06:49:52;94361.50;;;23.25;52.45
10079;BME280;5078;42.544;22.966;2023-09-08T06:52:20;94349.75;;;23.65;52.78
10079;BME280;5078;42.544;22.966;2023-09-08T06:54:47;94350.19;;;23.74;51.45
10079;BME280;5078;42.544;22.966;2023-09-08T06:57:14;94355.75;;;23.67;49.94
10079;BME280;5078;42.544;22.966;2023-09-08T06:59:41;94359.13;;;24.08;50.09
10079;BME280;5078;42.544;22.966;2023-09-08T07:02:08;94348.19;;;24.37;49.39
10079;BME280;5078;42.544;22.966;2023-09-08T07:04:35;94359.59;;;24.39;48.30
10079;BME280;5078;42.544;22.966;2023-09-08T07:07:01;94347.00;;;23.77;49.26
10079;BME280;5078;42.544;22.966;2023-09-08T07:09:35;94364.78;;;22.98;51.13
10079;BME280;5078;42.544;22.966;2023-09-08T07:12:03;94364.28;;;23.30;50.85
10079;BME280;5078;42.544;22.966;2023-09-08T07:14:30;94359.47;;;23.32;51.84
10079;BME280;5078;42.544;22.966;2023-09-08T07:16:57;94373.03;;;23.20;52.05
10079;BME280;5078;42.544;22.966;2023-09-08T07:19:23;94366.94;;;22.73;52.31
10079;BME280;5078;42.544;22.966;2023-09-08T07:21:50;94358.53;;;22.86;50.50
10079;BME280;5078;42.544;22.966;2023-09-08T07:24:17;94349.00;;;23.07;50.20
10079;BME280;5078;42.544;22.966;2023-09-08T07:26:45;94357.00;;;23.76;49.39
10079;BME280;5078;42.544;22.966;2023-09-08T07:29:11;94359.63;;;24.22;47.31
10079;BME280;5078;42.544;22.966;2023-09-08T07:31:39;94359.72;;;24.10;47.15
10079;BME280;5078;42.544;22.966;2023-09-08T07:34:06;94373.41;;;24.37;46.90
10079;BME280;5078;42.544;22.966;2023-09-08T07:36:33;94360.63;;;24.71;44.13
10079;BME280;5078;42.544;22.966;2023-09-08T07:39:00;94357.59;;;25.61;42.49
10079;BME280;5078;42.544;22.966;2023-09-08T07:41:27;94362.91;;;26.47;41.42
10079;BME280;5078;42.544;22.966;2023-09-08T07:43:55;94359.41;;;27.05;38.67
10079;BME280;5078;42.544;22.966;2023-09-08T07:46:21;94357.91;;;26.72;39.12
10079;BME280;5078;42.544;22.966;2023-09-08T07:48:49;94346.81;;;26.41;39.13
10079;BME280;5078;42.544;22.966;2023-09-08T07:51:16;94363.31;;;26.24;39.36
10079;BME280;5078;42.544;22.966;2023-09-08T07:53:42;94351.66;;;26.71;39.23
10079;BME280;5078;42.544;22.966;2023-09-08T07:56:09;94356.09;;;27.76;36.86
10079;BME280;5078;42.544;22.966;2023-09-08T07:58:36;94350.91;;;27.80;36.44
10079;BME280;5078;42.544;22.966;2023-09-08T08:01:05;94344.94;;;28.29;35.34
10079;BME280;5078;42.544;22.966;2023-09-08T08:03:32;94339.22;;;27.94;36.60
10079;BME280;5078;42.544;22.966;2023-09-08T08:06:00;94343.28;;;28.23;35.93
10079;BME280;5078;42.544;22.966;2023-09-08T08:08:27;94343.28;;;28.23;35.55
10079;BME280;5078;42.544;22.966;2023-09-08T08:10:53;94336.09;;;28.88;34.51
10079;BME280;5078;42.544;22.966;2023-09-08T08:13:20;94345.63;;;29.06;33.35
10079;BME280;5078;42.544;22.966;2023-09-08T08:15:47;94339.88;;;28.92;33.67
10079;BME280;5078;42.544;22.966;2023-09-08T08:18:16;94343.59;;;29.27;32.67
10079;BME280;5078;42.544;22.966;2023-09-08T08:20:43;94341.38;;;28.54;33.29
10079;BME280;5078;42.544;22.966;2023-09-08T08:23:09;94338.34;;;29.85;31.68
10079;BME280;5078;42.544;22.966;2023-09-08T08:25:36;94339.00;;;30.41;30.89
10079;BME280;5078;42.544;22.966;2023-09-08T08:28:03;94327.81;;;29.63;32.02
10079;BME280;5078;42.544;22.966;2023-09-08T08:30:30;94335.25;;;29.53;31.87
10079;BME280;5078;42.544;22.966;2023-09-08T08:32:57;94330.78;;;28.01;33.88
10079;BME280;5078;42.544;22.966;2023-09-08T08:35:25;94339.41;;;27.37;34.93
10079;BME280;5078;42.544;22.966;2023-09-08T08:37:52;94334.66;;;27.01;34.89
10079;BME280;5078;42.544;22.966;2023-09-08T08:40:19;94330.03;;;27.12;34.88
10079;BME280;5078;42.544;22.966;2023-09-08T08:42:46;94329.75;;;27.03;35.25
10079;BME280;5078;42.544;22.966;2023-09-08T08:45:13;94332.72;;;26.97;35.22
10079;BME280;5078;42.544;22.966;2023-09-08T08:47:44;94340.47;;;27.30;35.16
10079;BME280;5078;42.544;22.966;2023-09-08T08:50:12;94329.00;;;27.18;34.42
10079;BME280;5078;42.544;22.966;2023-09-08T08:52:40;94336.69;;;26.68;35.29
10079;BME280;5078;42.544;22.966;2023-09-08T08:55:07;94323.53;;;27.18;35.35
10079;BME280;5078;42.544;22.966;2023-09-08T08:57:36;94319.69;;;27.04;35.87
10079;BME280;5078;42.544;22.966;2023-09-08T09:00:04;94328.00;;;27.81;34.52
10079;BME280;5078;42.544;22.966;2023-09-08T09:02:35;94325.78;;;27.42;35.38
10079;BME280;5078;42.544;22.966;2023-09-08T09:05:03;94331.63;;;26.98;35.95
10079;BME280;5078;42.544;22.966;2023-09-08T09:07:31;94319.69;;;26.51;36.59
10079;BME280;5078;42.544;22.966;2023-09-08T09:10:00;94324.16;;;26.67;36.42
10079;BME280;5078;42.544;22.966;2023-09-08T09:12:28;94324.97;;;26.68;35.15
10079;BME280;5078;42.544;22.966;2023-09-08T09:14:58;94319.78;;;26.61;35.63
10079;BME280;5078;42.544;22.966;2023-09-08T09:17:25;94322.66;;;26.50;36.15
10079;BME280;5078;42.544;22.966;2023-09-08T09:20:11;94324.06;;;27.15;34.98
10079;BME280;5078;42.544;22.966;2023-09-08T09:22:39;94325.31;;;26.34;36.17
10079;BME280;5078;42.544;22.966;2023-09-08T09:25:08;94326.94;;;26.88;36.01
10079;BME280;5078;42.544;22.966;2023-09-08T09:27:35;94320.50;;;27.09;34.79
10079;BME280;5078;42.544;22.966;2023-09-08T09:30:03;94313.84;;;27.63;33.70
10079;BME280;5078;42.544;22.966;2023-09-08T09:32:30;94302.97;;;27.94;33.67
10079;BME280;5078;42.544;22.966;2023-09-08T09:34:57;94309.47;;;27.47;33.98
10079;BME280;5078;42.544;22.966;2023-09-08T09:37:26;94308.00;;;27.08;34.39
10079;BME280;5078;42.544;22.966;2023-09-08T09:39:54;94305.34;;;27.29;34.55
10079;BME280;5078;42.544;22.966;2023-09-08T09:42:22;94312.13;;;27.21;35.19
10079;BME280;5078;42.544;22.966;2023-09-08T09:44:49;94301.09;;;26.90;34.75
10079;BME280;5078;42.544;22.966;2023-09-08T09:47:17;94290.91;;;27.23;35.14
10079;BME280;5078;42.544;22.966;2023-09-08T09:49:46;94287.97;;;27.71;33.85
10079;BME280;5078;42.544;22.966;2023-09-08T09:52:14;94269.69;;;28.07;33.07
10079;BME280;5078;42.544;22.966;2023-09-08T09:54:46;94292.06;;;27.94;32.11
10079;BME280;5078;42.544;22.966;2023-09-08T09:57:16;94289.84;;;27.50;33.53
10079;BME280;5078;42.544;22.966;2023-09-08T09:59:45;94287.09;;;27.35;33.42
10079;BME280;5078;42.544;22.966;2023-09-08T10:02:14;94282.13;;;27.06;33.76
10079;BME280;5078;42.544;22.966;2023-09-08T10:04:41;94269.16;;;27.69;32.43
10079;BME280;5078;42.544;22.966;2023-09-08T10:07:09;94275.97;;;27.46;33.13
10079;BME280;5078;42.544;22.966;2023-09-08T10:09:36;94265.91;;;27.88;32.01
10079;BME280;5078;42.544;22.966;2023-09-08T10:12:04;94260.66;;;28.22;31.57
10079;BME280;5078;42.544;22.966;2023-09-08T10:14:32;94264.25;;;27.97;32.60
10079;BME280;5078;42.544;22.966;2023-09-08T10:17:05;94241.38;;;27.42;32.39
10079;BME280;5078;42.544;22.966;2023-09-08T10:19:35;94262.59;;;27.65;32.67
10079;BME280;5078;42.544;22.966;2023-09-08T10:22:09;94254.44;;;27.50;32.67
10079;BME280;5078;42.544;22.966;2023-09-08T10:24:38;94255.69;;;26.38;35.03
10079;BME280;5078;42.544;22.966;2023-09-08T10:27:08;94253.28;;;25.94;35.31
10079;BME280;5078;42.544;22.966;2023-09-08T10:29:36;94243.69;;;26.24;34.58
10079;BME280;5078;42.544;22.966;2023-09-08T10:32:06;94249.97;;;25.87;36.16
10079;BME280;5078;42.544;22.966;2023-09-08T10:34:33;94245.66;;;25.86;36.56
10079;BME280;5078;42.544;22.966;2023-09-08T10:37:00;94240.44;;;26.27;36.72
10079;BME280;5078;42.544;22.966;2023-09-08T10:39:30;94239.66;;;26.37;36.07
10079;BME280;5078;42.544;22.966;2023-09-08T10:42:19;94239.97;;;25.60;37.77
10079;BME280;5078;42.544;22.966;2023-09-08T10:44:55;94237.16;;;25.82;37.61
10079;BME280;5078;42.544;22.966;2023-09-08T10:47:24;94233.38;;;25.83;36.83
10079;BME280;5078;42.544;22.966;2023-09-08T10:49:52;94231.38;;;26.11;37.54
10079;BME280;5078;42.544;22.966;2023-09-08T10:52:23;94232.53;;;26.25;37.37
10079;BME280;5078;42.544;22.966;2023-09-08T10:54:51;94212.91;;;26.76;36.62
10079;BME280;5078;42.544;22.966;2023-09-08T10:57:20;94230.47;;;26.48;36.19
10079;BME280;5078;42.544;22.966;2023-09-08T10:59:51;94224.41;;;26.31;37.07
10079;BME280;5078;42.544;22.966;2023-09-08T11:02:36;94220.09;;;26.40;36.50
10079;BME280;5078;42.544;22.966;2023-09-08T11:05:04;94217.25;;;26.67;36.70
10079;BME280;5078;42.544;22.966;2023-09-08T11:07:33;94214.56;;;26.87;36.48
10079;BME280;5078;42.544;22.966;2023-09-08T11:10:00;94197.47;;;27.07;35.71
10079;BME280;5078;42.544;22.966;2023-09-08T11:12:27;94195.03;;;27.16;36.39
10079;BME280;5078;42.544;22.966;2023-09-08T11:14:54;94196.31;;;26.73;35.82
10079;BME280;5078;42.544;22.966;2023-09-08T11:17:25;94202.19;;;26.44;36.51
10079;BME280;5078;42.544;22.966;2023-09-08T11:19:53;94197.09;;;26.68;36.73
10079;BME280;5078;42.544;22.966;2023-09-08T11:22:22;94205.22;;;26.58;37.52
10079;BME280;5078;42.544;22.966;2023-09-08T11:24:50;94188.59;;;26.49;37.67
10079;BME280;5078;42.544;22.966;2023-09-08T11:27:18;94188.53;;;26.34;36.81
10079;BME280;5078;42.544;22.966;2023-09-08T11:29:45;94179.56;;;25.43;38.54
10079;BME280;5078;42.544;22.966;2023-09-08T11:32:12;94190.22;;;25.17;39.30
10079;BME280;5078;42.544;22.966;2023-09-08T11:34:39;94190.91;;;25.08;40.00
10079;BME280;5078;42.544;22.966;2023-09-08T11:37:09;94183.59;;;25.08;40.44
10079;BME280;5078;42.544;22.966;2023-09-08T11:39:37;94179.88;;;25.47;40.87
10079;BME280;5078;42.544;22.966;2023-09-08T11:42:05;94182.56;;;25.42;40.87
10079;BME280;5078;42.544;22.966;2023-09-08T11:44:32;94187.78;;;25.53;40.86
10079;BME280;5078;42.544;22.966;2023-09-08T11:46:59;94176.84;;;25.43;40.40
10079;BME280;5078;42.544;22.966;2023-09-08T11:49:33;94178.91;;;25.68;40.73
10079;BME280;5078;42.544;22.966;2023-09-08T11:52:00;94176.31;;;25.83;40.92
10079;BME280;5078;42.544;22.966;2023-09-08T11:54:28;94171.59;;;25.69;40.65
10079;BME280;5078;42.544;22.966;2023-09-08T11:56:55;94183.94;;;25.44;40.93
10079;BME280;5078;42.544;22.966;2023-09-08T11:59:23;94179.13;;;25.19;41.33
10079;BME280;5078;42.544;22.966;2023-09-08T12:01:50;94181.16;;;24.80;42.59
10079;BME280;5078;42.544;22.966;2023-09-08T12:04:17;94173.03;;;24.80;42.86
10079;BME280;5078;42.544;22.966;2023-09-08T12:06:45;94167.03;;;24.78;43.50
10079;BME280;5078;42.544;22.966;2023-09-08T12:09:14;94165.38;;;24.71;43.52
10079;BME280;5078;42.544;22.966;2023-09-08T12:11:43;94173.13;;;24.41;43.47
10079;BME280;5078;42.544;22.966;2023-09-08T12:14:11;94170.41;;;24.63;43.38
10079;BME280;5078;42.544;22.966;2023-09-08T12:16:38;94163.91;;;24.91;42.23
10079;BME280;5078;42.544;22.966;2023-09-08T12:19:05;94166.41;;;24.97;42.60
10079;BME280;5078;42.544;22.966;2023-09-08T12:21:35;94168.91;;;24.72;42.36
10079;BME280;5078;42.544;22.966;2023-09-08T12:24:01;94170.94;;;24.38;43.46
10079;BME280;5078;42.544;22.966;2023-09-08T12:26:28;94162.13;;;24.47;43.13
10079;BME280;5078;42.544;22.966;2023-09-08T12:28:57;94145.16;;;24.35;43.71
10079;BME280;5078;42.544;22.966;2023-09-08T12:31:23;94158.25;;;24.65;43.56
10079;BME280;5078;42.544;22.966;2023-09-08T12:33:50;94137.81;;;24.85;42.69
10079;BME280;5078;42.544;22.966;2023-09-08T12:36:19;94153.72;;;25.03;42.57
10079;BME280;5078;42.544;22.966;2023-09-08T12:38:50;94150.78;;;24.78;42.66
10079;BME280;5078;42.544;22.966;2023-09-08T12:41:17;94138.25;;;24.71;43.14
10079;BME280;5078;42.544;22.966;2023-09-08T12:43:44;94141.16;;;24.92;43.20
10079;BME280;5078;42.544;22.966;2023-09-08T12:46:13;94143.47;;;25.10;42.29
10079;BME280;5078;42.544;22.966;2023-09-08T12:48:43;94139.41;;;25.45;40.55
10079;BME280;5078;42.544;22.966;2023-09-08T12:51:09;94132.22;;;25.66;39.91
10079;BME280;5078;42.544;22.966;2023-09-08T12:53:36;94133.63;;;25.79;40.69
10079;BME280;5078;42.544;22.966;2023-09-08T12:56:03;94144.66;;;26.04;41.03
10079;BME280;5078;42.544;22.966;2023-09-08T12:58:30;94144.50;;;25.79;40.03
10079;BME280;5078;42.544;22.966;2023-09-08T13:00:57;94155.34;;;25.31;40.87